Time;durP1;ratioP1;P1;durP2;ratioP2;P2;SDS_P1;SDS_P2;PMS_P1;PMS_P2;Temp;Humidity;BMP_temperature;BMP_pressure;BME280_temperature;BME280_humidity;BME280_pressure;Samples;Min_cycle;Max_cycle;Signal;HPM_P1;HPM_P2
2023/05/11 00:01:09;;;;;;;5.10;4.70;;;22.30;80.80;;;;;;6266164;27;89090;-71
2023/05/11 00:04:11;;;;;;;8.10;6.32;;;22.30;80.80;;;;;;6264015;27;88042;-71
2023/05/11 00:07:13;;;;;;;5.50;4.78;;;22.30;80.80;;;;;;6277567;27;89590;-71
2023/05/11 00:10:15;;;;;;;5.18;4.78;;;22.30;80.90;;;;;;6273693;27;89485;-71
2023/05/11 00:13:19;;;;;;;5.47;4.97;;;22.30;80.80;;;;;;6280999;27;89059;-70
2023/05/11 00:16:21;;;;;;;5.18;4.70;;;22.20;80.80;;;;;;6285400;27;89827;-71
2023/05/11 00:19:23;;;;;;;5.50;5.00;;;22.20;80.70;;;;;;6273963;27;89147;-71
2023/05/11 00:22:25;;;;;;;5.70;5.10;;;22.30;80.80;;;;;;6284622;27;89221;-71
2023/05/11 00:25:27;;;;;;;4.90;4.50;;;22.20;80.70;;;;;;6267976;27;90318;-72
2023/05/11 00:28:30;;;;;;;5.30;4.80;;;22.20;80.70;;;;;;6270318;27;89008;-71
2023/05/11 00:31:32;;;;;;;4.97;4.57;;;22.20;80.70;;;;;;6282998;27;89080;-71
2023/05/11 00:34:34;;;;;;;5.03;4.60;;;22.20;80.80;;;;;;6271836;27;88954;-71
2023/05/11 00:37:37;;;;;;;5.65;5.15;;;22.30;80.80;;;;;;6279173;27;89017;-71
2023/05/11 00:40:39;;;;;;;5.30;4.80;;;22.20;80.70;;;;;;6282618;27;89083;-71
2023/05/11 00:43:42;;;;;;;5.20;4.80;;;22.20;80.60;;;;;;6282983;27;89081;-71
2023/05/11 00:46:44;;;;;;;5.85;4.40;;;22.30;80.70;;;;;;6290308;27;88293;-71
2023/05/11 00:49:47;;;;;;;4.78;4.38;;;22.20;80.70;;;;;;6270155;27;89102;-71
2023/05/11 00:52:50;;;;;;;5.03;4.53;;;22.20;80.60;;;;;;6278085;27;89073;-71
2023/05/11 00:55:52;;;;;;;4.72;4.32;;;22.20;80.60;;;;;;6284136;27;90021;-71
2023/05/11 00:58:55;;;;;;;4.80;4.30;;;22.20;80.60;;;;;;6294100;27;89142;-71
2023/05/11 01:01:58;;;;;;;4.30;3.97;;;22.20;80.60;;;;;;6283268;27;89105;-71
2023/05/11 01:05:00;;;;;;;5.18;4.70;;;22.20;80.60;;;;;;6260317;27;89095;-71
2023/05/11 01:08:06;;;;;;;5.70;4.80;;;22.20;80.60;;;;;;6283877;27;89089;-71
2023/05/11 01:11:15;;;;;;;5.28;4.78;;;22.20;80.60;;;;;;6266062;27;89061;-70
2023/05/11 01:14:23;;;;;;;4.40;4.00;;;22.20;80.60;;;;;;6272555;27;88956;-71
2023/05/11 01:17:36;;;;;;;4.20;3.90;;;22.20;80.60;;;;;;6278918;27;88379;-71
2023/05/11 01:20:38;;;;;;;4.53;4.13;;;22.20;80.60;;;;;;6259638;27;89057;-71
2023/05/11 01:23:52;;;;;;;4.80;4.30;;;22.20;80.60;;;;;;6270749;27;89276;-71
2023/05/11 01:27:24;;;;;;;4.03;3.67;;;22.20;80.60;;;;;;6270314;27;90036;-71
2023/05/11 01:30:31;;;;;;;4.22;3.83;;;22.20;80.60;;;;;;6258704;27;88020;-70
2023/05/11 01:33:37;;;;;;;5.00;4.18;;;22.20;80.60;;;;;;6256156;27;89108;-71
2023/05/11 01:36:44;;;;;;;4.32;3.97;;;22.20;80.50;;;;;;6277879;27;89058;-71
2023/05/11 01:40:01;;;;;;;3.88;3.58;;;22.20;80.50;;;;;;6280050;27;89143;-71
2023/05/11 01:43:07;;;;;;;4.43;4.03;;;22.20;80.60;;;;;;6287735;27;89061;-71
2023/05/11 01:46:12;;;;;;;4.43;4.03;;;22.20;80.60;;;;;;6262905;27;88025;-71
2023/05/11 01:49:15;;;;;;;4.22;3.83;;;22.20;80.60;;;;;;6278096;27;87508;-71
2023/05/11 01:52:20;;;;;;;4.38;3.83;;;22.20;80.60;;;;;;6262213;27;89079;-72
2023/05/11 01:55:23;;;;;;;4.28;3.88;;;22.20;80.60;;;;;;6275366;27;88853;-72
2023/05/11 01:58:27;;;;;;;3.95;3.65;;;22.20;80.50;;;;;;6272993;27;90093;-71
2023/05/11 02:01:31;;;;;;;3.58;3.28;;;22.20;80.50;;;;;;6272703;27;88949;-71
2023/05/11 02:04:35;;;;;;;3.90;3.60;;;22.20;80.50;;;;;;6299650;27;88864;-71
2023/05/11 02:07:39;;;;;;;3.75;3.45;;;22.20;80.50;;;;;;6265266;27;89083;-72
2023/05/11 02:10:42;;;;;;;4.10;3.70;;;22.20;81.00;;;;;;6269400;27;89167;-72
2023/05/11 02:13:46;;;;;;;3.63;3.33;;;22.20;80.50;;;;;;6272339;27;89077;-71
2023/05/11 02:16:50;;;;;;;3.92;3.63;;;22.20;80.60;;;;;;6254092;27;89076;-71
2023/05/11 02:19:53;;;;;;;4.22;3.83;;;22.20;80.60;;;;;;6260419;27;88369;-72
2023/05/11 02:22:56;;;;;;;3.75;3.45;;;22.20;80.60;;;;;;6278198;27;87952;-71
2023/05/11 02:25:59;;;;;;;4.30;3.90;;;22.20;80.50;;;;;;6278069;27;89048;-72
2023/05/11 02:29:01;;;;;;;3.78;3.47;;;22.20;80.50;;;;;;6272867;27;90017;-71
2023/05/11 02:32:09;;;;;;;3.70;3.40;;;22.20;80.50;;;;;;6267115;27;87982;-72
2023/05/11 02:35:16;;;;;;;3.60;3.30;;;22.20;80.50;;;;;;6256437;27;88989;-72
2023/05/11 02:38:19;;;;;;;3.88;3.53;;;22.20;80.50;;;;;;6265625;27;89240;-71
2023/05/11 02:41:27;;;;;;;3.70;3.40;;;22.20;80.60;;;;;;6256790;27;89461;-72
2023/05/11 02:44:34;;;;;;;3.72;3.42;;;22.20;80.50;;;;;;6269183;27;89064;-72
2023/05/11 02:47:41;;;;;;;3.50;3.20;;;22.20;80.50;;;;;;6277109;27;89021;-72
2023/05/11 02:50:44;;;;;;;3.83;3.53;;;22.20;80.60;;;;;;6287172;27;88333;-71
2023/05/11 02:53:46;;;;;;;3.63;3.33;;;22.20;80.50;;;;;;6276605;27;89070;-72
2023/05/11 02:56:49;;;;;;;3.90;3.60;;;22.20;80.50;;;;;;6290545;27;89269;-71
2023/05/11 02:59:52;;;;;;;3.58;3.28;;;22.20;80.50;;;;;;6278202;27;90024;-71
2023/05/11 03:02:55;;;;;;;3.60;3.30;;;22.20;81.40;;;;;;6278193;27;89381;-71
2023/05/11 03:05:57;;;;;;;3.85;3.50;;;22.20;80.50;;;;;;6280044;27;89182;-71
2023/05/11 03:09:00;;;;;;;3.80;3.50;;;22.20;80.50;;;;;;6274735;27;89077;-71
2023/05/11 03:12:03;;;;;;;3.55;3.25;;;22.20;80.50;;;;;;6280130;27;89511;-71
2023/05/11 03:15:06;;;;;;;3.60;3.30;;;22.20;80.50;;;;;;6290612;27;89126;-71
2023/05/11 03:18:11;;;;;;;3.88;3.58;;;22.20;80.50;;;;;;6275714;27;89092;-71
2023/05/11 03:21:16;;;;;;;3.70;3.40;;;22.20;80.60;;;;;;6280150;27;88280;-72
2023/05/11 03:24:18;;;;;;;3.80;3.50;;;22.20;80.50;;;;;;6297141;27;88035;-71
2023/05/11 03:27:21;;;;;;;4.43;4.03;;;22.10;80.50;;;;;;6278244;27;90260;-70
2023/05/11 03:30:23;;;;;;;4.03;3.63;;;22.10;80.50;;;;;;6278946;27;89965;-70
2023/05/11 03:33:27;;;;;;;4.38;3.95;;;22.10;80.50;;;;;;6268815;27;89227;-71
2023/05/11 03:36:31;;;;;;;4.28;3.88;;;22.20;80.50;;;;;;6273513;27;89157;-72
2023/05/11 03:39:35;;;;;;;4.72;4.20;;;22.20;80.50;;;;;;6293916;27;89894;-71
2023/05/11 03:42:38;;;;;;;4.70;4.30;;;22.10;80.50;;;;;;6243911;27;89188;-71
2023/05/11 03:45:43;;;;;;;4.70;4.30;;;22.20;80.50;;;;;;6232509;27;89429;-72
2023/05/11 03:48:47;;;;;;;5.10;4.57;;;22.20;80.60;;;;;;6232189;27;89045;-71
2023/05/11 03:51:49;;;;;;;5.18;4.68;;;22.10;80.50;;;;;;6263645;27;88608;-71
2023/05/11 03:54:51;;;;;;;4.70;4.30;;;22.10;80.50;;;;;;6241477;27;89075;-71
2023/05/11 03:57:53;;;;;;;4.82;4.32;;;22.10;80.50;;;;;;6238406;27;89086;-71
2023/05/11 04:00:55;;;;;;;5.07;4.68;;;22.10;80.60;;;;;;6258619;27;90107;-71
2023/05/11 04:03:59;;;;;;;4.78;4.38;;;22.20;80.60;;;;;;6249955;27;89010;-71
2023/05/11 04:07:01;;;;;;;4.95;4.45;;;22.20;80.60;;;;;;6253653;27;88932;-71
2023/05/11 04:10:04;;;;;;;5.30;4.80;;;22.20;80.60;;;;;;6245116;27;89107;-72
2023/05/11 04:13:06;;;;;;;5.45;4.95;;;22.20;80.60;;;;;;6238952;27;93409;-71
2023/05/11 04:16:08;;;;;;;5.05;4.65;;;22.20;80.70;;;;;;6255013;27;89882;-70
2023/05/11 04:19:11;;;;;;;5.35;4.85;;;22.20;80.60;;;;;;6243432;27;89325;-72
2023/05/11 04:22:13;;;;;;;5.28;4.78;;;22.20;80.60;;;;;;6255980;27;88509;-72
2023/05/11 04:25:15;;;;;;;5.63;5.13;;;22.10;80.70;;;;;;6269670;27;89004;-71
2023/05/11 04:28:17;;;;;;;5.75;5.22;;;22.20;80.80;;;;;;6248023;27;89100;-72
2023/05/11 04:31:19;;;;;;;5.63;5.13;;;22.20;80.70;;;;;;6255016;27;90154;-71
2023/05/11 04:34:23;;;;;;;5.97;5.47;;;22.10;80.60;;;;;;6253879;27;89218;-69
2023/05/11 04:37:25;;;;;;;5.93;5.30;;;22.20;80.60;;;;;;6249079;27;89105;-70
2023/05/11 04:40:27;;;;;;;5.70;5.20;;;22.20;80.60;;;;;;6258225;27;89168;-69
2023/05/11 04:43:29;;;;;;;5.57;5.07;;;22.20;80.60;;;;;;6263984;27;89374;-70
2023/05/11 04:46:31;;;;;;;6.10;5.50;;;22.20;80.60;;;;;;6268776;27;89360;-71
2023/05/11 04:49:35;;;;;;;6.20;5.60;;;22.20;80.70;;;;;;6262869;27;88091;-71
2023/05/11 04:52:37;;;;;;;6.65;5.95;;;22.20;80.70;;;;;;6289800;27;88383;-70
2023/05/11 04:55:39;;;;;;;6.28;5.68;;;22.20;80.60;;;;;;6282413;27;89114;-72
2023/05/11 04:58:41;;;;;;;6.55;5.95;;;22.20;80.70;;;;;;6269233;27;89130;-71
2023/05/11 05:01:43;;;;;;;6.95;5.68;;;22.20;80.80;;;;;;6274931;27;89980;-73
2023/05/11 05:04:46;;;;;;;6.10;5.50;;;22.20;81.00;;;;;;6272210;27;89027;-77
2023/05/11 05:07:48;;;;;;;6.65;6.05;;;22.20;81.50;;;;;;6277986;27;89080;-74
2023/05/11 05:10:50;;;;;;;6.25;5.65;;;22.20;84.70;;;;;;6275190;27;89156;-75
2023/05/11 05:13:52;;;;;;;6.82;6.13;;;22.30;83.70;;;;;;6276560;27;89088;-73
2023/05/11 05:16:54;;;;;;;6.78;6.10;;;22.30;82.80;;;;;;6265973;27;87981;-75
2023/05/11 05:19:58;;;;;;;6.47;5.88;;;22.30;82.30;;;;;;6268367;27;89561;-75
2023/05/11 05:23:00;;;;;;;7.03;6.40;;;22.30;82.40;;;;;;6257096;27;88422;-76
2023/05/11 05:26:02;;;;;;;7.70;6.63;;;22.30;82.00;;;;;;6267020;27;89115;-74
2023/05/11 05:29:04;;;;;;;6.30;5.70;;;22.30;82.00;;;;;;6273580;27;89513;-73
2023/05/11 05:32:06;;;;;;;7.20;6.50;;;22.30;82.10;;;;;;6267008;27;90056;-74
2023/05/11 05:35:10;;;;;;;6.82;6.13;;;22.30;82.00;;;;;;6265218;27;89058;-73
2023/05/11 05:38:12;;;;;;;6.40;5.80;;;22.30;82.00;;;;;;6271710;27;89494;-72
2023/05/11 05:41:14;;;;;;;6.57;5.78;;;22.30;81.90;;;;;;6254857;27;89020;-73
2023/05/11 05:44:16;;;;;;;6.70;6.10;;;22.30;82.10;;;;;;6243471;27;89063;-73
2023/05/11 05:47:17;;;;;;;6.82;6.20;;;22.30;82.00;;;;;;6253995;27;89147;-73
2023/05/11 05:50:21;;;;;;;7.45;6.20;;;22.30;82.00;;;;;;6249219;27;89102;-73
2023/05/11 05:53:23;;;;;;;6.75;6.15;;;22.30;81.90;;;;;;6244189;27;88232;-73
2023/05/11 05:56:25;;;;;;;6.80;6.10;;;22.30;81.90;;;;;;6250201;27;88086;-74
2023/05/11 05:59:27;;;;;;;6.60;6.00;;;22.30;81.90;;;;;;6244950;27;89160;-73
2023/05/11 06:02:29;;;;;;;6.82;6.10;;;22.30;81.80;;;;;;6265526;27;88929;-74
2023/05/11 06:05:32;;;;;;;7.20;6.45;;;22.30;81.80;;;;;;6242912;27;89158;-73
2023/05/11 06:08:34;;;;;;;6.22;5.60;;;22.30;81.70;;;;;;6262351;27;89149;-73
2023/05/11 06:11:37;;;;;;;6.30;5.70;;;22.30;81.80;;;;;;6242878;27;89371;-74
2023/05/11 06:14:40;;;;;;;6.53;5.88;;;22.30;81.70;;;;;;6254177;27;89127;-73
2023/05/11 06:17:42;;;;;;;6.68;6.07;;;22.30;81.80;;;;;;6254531;27;89458;-74
2023/05/11 06:20:45;;;;;;;6.82;5.75;;;22.30;81.60;;;;;;6248930;27;89157;-73
2023/05/11 06:23:47;;;;;;;6.25;5.65;;;22.30;81.60;;;;;;6238317;27;88560;-73
2023/05/11 06:26:49;;;;;;;6.20;5.63;;;22.30;81.60;;;;;;6261987;27;89124;-74
2023/05/11 06:29:51;;;;;;;6.43;5.70;;;22.30;81.60;;;;;;6251432;27;89364;-73
2023/05/11 06:32:53;;;;;;;6.22;5.32;;;22.30;81.60;;;;;;6248847;27;90317;-73
2023/05/11 06:35:56;;;;;;;6.00;5.40;;;22.30;81.70;;;;;;6274518;27;89122;-73
2023/05/11 06:38:58;;;;;;;6.78;6.07;;;22.30;81.70;;;;;;6264744;27;87861;-72
2023/05/11 06:42:00;;;;;;;5.85;5.30;;;22.30;81.70;;;;;;6295643;27;89533;-74
2023/05/11 06:45:02;;;;;;;6.38;5.75;;;22.40;81.80;;;;;;6268063;27;89612;-73
2023/05/11 06:48:05;;;;;;;5.88;5.38;;;22.30;81.90;;;;;;6260047;27;89445;-73
2023/05/11 06:51:10;;;;;;;6.88;5.57;;;22.40;81.90;;;;;;6274829;27;88951;-72
2023/05/11 06:54:12;;;;;;;6.30;5.63;;;22.30;81.80;;;;;;6264867;27;88235;-73
2023/05/11 06:57:13;;;;;;;6.10;5.50;;;22.30;81.80;;;;;;6281695;27;89077;-74
2023/05/11 07:00:17;;;;;;;5.80;5.30;;;22.30;81.80;;;;;;6283774;27;89050;-73
2023/05/11 07:03:18;;;;;;;7.03;5.63;;;22.30;81.80;;;;;;6285881;27;88905;-75
2023/05/11 07:06:22;;;;;;;5.78;5.18;;;22.30;81.80;;;;;;6287686;27;89120;-73
2023/05/11 07:09:24;;;;;;;5.57;4.93;;;22.30;81.70;;;;;;6275661;27;89105;-73
2023/05/11 07:12:26;;;;;;;5.82;5.22;;;22.30;81.80;;;;;;6284961;27;89024;-73
2023/05/11 07:15:28;;;;;;;5.82;5.20;;;22.30;81.80;;;;;;6262426;27;88034;-73
2023/05/11 07:18:30;;;;;;;6.28;5.20;;;22.30;81.80;;;;;;6282901;27;89054;-74
2023/05/11 07:21:34;;;;;;;5.85;5.18;;;22.30;81.80;;;;;;6269294;27;89052;-73
2023/05/11 07:24:36;;;;;;;6.72;5.82;;;22.40;82.00;;;;;;6272977;27;87252;-73
2023/05/11 07:27:38;;;;;;;6.05;5.45;;;22.40;81.90;;;;;;6279019;27;89117;-74
2023/05/11 07:30:40;;;;;;;5.50;5.00;;;22.40;81.90;;;;;;6273469;27;91161;-73
2023/05/11 07:33:42;;;;;;;5.53;5.03;;;22.40;81.80;;;;;;6273531;27;89831;-74
2023/05/11 07:36:46;;;;;;;7.10;5.47;;;22.40;81.90;;;;;;6281854;27;88883;-73
2023/05/11 07:39:48;;;;;;;6.43;5.22;;;22.40;81.90;;;;;;6290578;27;89030;-74
2023/05/11 07:42:50;;;;;;;5.03;4.63;;;22.40;81.90;;;;;;6272145;27;88632;-74
2023/05/11 07:45:52;;;;;;;5.50;5.00;;;22.30;81.90;;;;;;6280548;27;89125;-74
2023/05/11 07:48:54;;;;;;;4.97;4.50;;;22.40;82.00;;;;;;6262915;27;88056;-73
2023/05/11 07:51:57;;;;;;;5.78;4.90;;;22.40;82.00;;;;;;6267261;27;89058;-74
2023/05/11 07:54:59;;;;;;;5.10;4.60;;;22.40;82.00;;;;;;6287881;27;89660;-74
2023/05/11 07:58:02;;;;;;;5.28;4.75;;;22.40;82.00;;;;;;6279668;27;91071;-74
2023/05/11 08:01:04;;;;;;;5.53;4.35;;;22.40;82.10;;;;;;6281245;27;89093;-74
2023/05/11 08:04:06;;;;;;;5.13;4.63;;;22.40;82.00;;;;;;6281600;27;90416;-73
2023/05/11 08:07:10;;;;;;;5.07;4.57;;;22.40;82.00;;;;;;6259757;27;89330;-74
2023/05/11 08:10:13;;;;;;;5.20;4.47;;;22.40;82.00;;;;;;6263070;27;89078;-74
2023/05/11 08:13:15;;;;;;;5.03;4.53;;;22.40;82.00;;;;;;6271477;27;89279;-74
2023/05/11 08:16:17;;;;;;;5.30;4.80;;;22.40;82.00;;;;;;6272357;27;88091;-75
2023/05/11 08:19:19;;;;;;;5.25;4.15;;;22.40;82.00;;;;;;6270034;27;89535;-74
2023/05/11 08:22:23;;;;;;;5.38;4.60;;;22.40;82.00;;;;;;6272270;27;89017;-73
2023/05/11 08:25:25;;;;;;;5.47;4.53;;;22.40;82.00;;;;;;6283283;27;88326;-74
2023/05/11 08:28:27;;;;;;;5.45;4.72;;;22.40;82.00;;;;;;6279803;27;90030;-74
2023/05/11 08:31:29;;;;;;;5.70;4.78;;;22.50;82.10;;;;;;6282681;27;89166;-73
2023/05/11 08:34:31;;;;;;;5.10;4.13;;;22.40;82.10;;;;;;6270088;27;90582;-73
2023/05/11 08:37:34;;;;;;;4.60;4.18;;;22.40;82.00;;;;;;6279266;27;89100;-74
2023/05/11 08:40:36;;;;;;;4.65;4.15;;;22.40;82.00;;;;;;6271847;27;89105;-73
2023/05/11 08:43:40;;;;;;;4.53;4.13;;;22.40;82.20;;;;;;6273998;27;89089;-73
2023/05/11 08:46:45;;;;;;;4.47;3.80;;;22.40;82.20;;;;;;6267384;27;88987;-73
2023/05/11 08:49:47;;;;;;;6.43;4.10;;;22.40;82.20;;;;;;6271358;27;88679;-74
2023/05/11 08:52:51;;;;;;;6.07;4.05;;;22.40;82.40;;;;;;6264600;27;89193;-73
2023/05/11 08:55:56;;;;;;;6.75;4.55;;;22.50;82.70;;;;;;6275896;27;88644;-74
2023/05/11 08:58:58;;;;;;;5.80;4.13;;;22.40;82.70;;;;;;6264914;27;88203;-73
2023/05/11 09:02:02;;;;;;;5.97;3.70;;;22.50;82.80;;;;;;6279009;27;87957;-73
2023/05/11 09:05:04;;;;;;;6.25;4.30;;;22.50;82.70;;;;;;6277438;27;89909;-73
2023/05/11 09:08:08;;;;;;;6.30;4.18;;;22.40;82.70;;;;;;6232747;27;89133;-72
2023/05/11 09:11:11;;;;;;;5.28;3.47;;;22.50;82.70;;;;;;6272636;27;88985;-74
2023/05/11 09:14:13;;;;;;;4.72;3.80;;;22.50;82.60;;;;;;6266818;27;88953;-73
2023/05/11 09:17:14;;;;;;;6.05;3.95;;;22.40;82.50;;;;;;6260351;27;89047;-73
2023/05/11 09:20:24;;;;;;;4.80;3.85;;;22.40;82.50;;;;;;6268060;27;88943;-74
2023/05/11 09:23:27;;;;;;;4.45;3.80;;;22.50;82.50;;;;;;6279931;27;88327;-74
2023/05/11 09:26:33;;;;;;;4.32;3.50;;;22.50;82.50;;;;;;6269260;27;88331;-74
2023/05/11 09:29:35;;;;;;;4.47;3.40;;;22.50;82.50;;;;;;6285606;27;89462;-73
2023/05/11 09:32:46;;;;;;;3.90;3.50;;;22.50;82.50;;;;;;6270556;27;89071;-73
2023/05/11 09:35:49;;;;;;;5.72;3.60;;;22.50;82.50;;;;;;6275241;27;90048;-73
2023/05/11 09:38:52;;;;;;;3.78;3.38;;;22.40;82.50;;;;;;6288536;27;89069;-72
2023/05/11 09:42:12;;;;;;;3.58;3.28;;;22.50;82.50;;;;;;6282804;27;89093;-73
2023/05/11 09:45:14;;;;;;;4.32;3.33;;;22.50;82.50;;;;;;6264011;27;89030;-74
2023/05/11 09:48:27;;;;;;;5.88;3.83;;;22.50;82.50;;;;;;6261275;27;89112;-74
2023/05/11 09:51:31;;;;;;;4.20;3.45;;;22.50;82.50;;;;;;6273743;27;89059;-73
2023/05/11 09:54:42;;;;;;;5.90;4.15;;;22.50;82.50;;;;;;6263409;27;89557;-72
2023/05/11 09:57:54;;;;;;;3.80;3.22;;;22.50;82.80;;;;;;6278190;27;88356;-72
2023/05/11 10:00:56;;;;;;;3.80;2.92;;;22.50;82.40;;;;;;6276090;27;89055;-72
2023/05/11 10:03:59;;;;;;;3.55;3.20;;;22.50;82.30;;;;;;6272051;27;89135;-74
2023/05/11 10:07:03;;;;;;;3.67;3.38;;;22.50;82.30;;;;;;6274047;27;90016;-74
2023/05/11 10:10:10;;;;;;;3.58;2.90;;;22.50;82.40;;;;;;6265371;27;88811;-73
2023/05/11 10:13:12;;;;;;;3.53;3.20;;;22.50;82.30;;;;;;6269462;27;88971;-72
2023/05/11 10:16:16;;;;;;;3.58;3.20;;;22.50;82.40;;;;;;6268591;27;87946;-73
2023/05/11 10:19:19;;;;;;;3.45;3.10;;;22.40;82.40;;;;;;6273307;27;89434;-74
2023/05/11 10:22:22;;;;;;;4.28;3.40;;;22.50;82.50;;;;;;6266598;27;89039;-74
2023/05/11 10:25:26;;;;;;;3.35;2.70;;;22.40;82.50;;;;;;6269430;27;89038;-73
2023/05/11 10:28:29;;;;;;;3.53;3.00;;;22.40;82.70;;;;;;6271297;27;88317;-74
2023/05/11 10:31:32;;;;;;;7.13;3.72;;;22.50;83.30;;;;;;6277578;27;89029;-73
2023/05/11 10:34:34;;;;;;;3.55;2.90;;;22.50;83.50;;;;;;6271219;27;89299;-73
2023/05/11 10:37:37;;;;;;;4.88;3.20;;;22.40;83.70;;;;;;6268326;27;91606;-73
2023/05/11 10:40:42;;;;;;;3.08;2.78;;;22.50;84.00;;;;;;6268953;27;89010;-73
2023/05/11 10:44:07;;;;;;;3.97;2.55;;;22.50;84.20;;;;;;6264060;27;89004;-73
2023/05/11 10:47:24;;;;;;;4.45;2.80;;;22.50;84.40;;;;;;6280172;27;89029;-73
2023/05/11 10:50:46;;;;;;;5.70;2.92;;;22.50;84.40;;;;;;6254252;27;89042;-74
2023/05/11 10:54:03;;;;;;;5.13;3.42;;;22.50;84.20;;;;;;6263381;27;89179;-74
2023/05/11 10:57:15;;;;;;;4.75;2.78;;;22.50;84.20;;;;;;6266186;27;89142;-76
2023/05/11 11:00:59;;;;;;;3.53;2.70;;;22.50;84.30;;;;;;6268538;27;87260;-73
2023/05/11 11:04:05;;;;;;;2.65;2.38;;;22.50;84.40;;;;;;6258267;27;89319;-74
2023/05/11 11:07:07;;;;;;;2.65;2.28;;;22.50;84.20;;;;;;6265740;27;89483;-74
2023/05/11 11:10:11;;;;;;;2.30;2.10;;;22.50;84.00;;;;;;6262654;27;90028;-75
2023/05/11 11:13:17;;;;;;;3.95;2.47;;;22.50;84.00;;;;;;6280306;27;90333;-73
2023/05/11 11:16:22;;;;;;;2.97;2.25;;;22.50;84.00;;;;;;6266351;27;87973;-73
2023/05/11 11:19:37;;;;;;;3.08;2.22;;;22.50;84.00;;;;;;6264323;27;89071;-74
2023/05/11 11:22:46;;;;;;;3.03;2.10;;;22.50;84.20;;;;;;6284030;27;88913;-75
2023/05/11 11:25:53;;;;;;;3.45;2.38;;;22.50;84.40;;;;;;6276385;27;89046;-73
2023/05/11 11:29:11;;;;;;;2.75;2.00;;;22.50;84.40;;;;;;6272700;27;88050;-75
2023/05/11 11:32:28;;;;;;;3.97;2.17;;;22.50;84.30;;;;;;6270346;27;87517;-72
2023/05/11 11:35:47;;;;;;;5.55;2.00;;;22.50;84.10;;;;;;6259481;27;87890;-72
2023/05/11 11:38:58;;;;;;;3.63;2.40;;;22.50;84.00;;;;;;6266189;27;88988;-73
2023/05/11 11:42:01;;;;;;;3.05;2.35;;;22.50;83.90;;;;;;6231943;28;89764;-73
2023/05/11 11:45:27;;;;;;;3.17;1.90;;;22.50;83.90;;;;;;6231958;28;89054;-73
2023/05/11 11:48:31;;;;;;;2.40;2.20;;;22.50;83.80;;;;;;6245165;28;89298;-73
2023/05/11 11:51:34;;;;;;;3.15;2.08;;;22.50;83.80;;;;;;6245230;28;89097;-72
2023/05/11 11:54:39;;;;;;;2.35;2.00;;;22.50;83.70;;;;;;6236245;28;89247;-72
2023/05/11 11:57:49;;;;;;;3.58;2.30;;;22.50;83.70;;;;;;6254766;28;89516;-72
2023/05/11 12:00:53;;;;;;;2.90;2.25;;;22.50;83.70;;;;;;6254308;27;89257;-72
2023/05/11 12:04:37;;;;;;;3.47;2.22;;;22.50;83.70;;;;;;6244099;28;88297;-74
2023/05/11 12:07:42;;;;;;;2.63;2.10;;;22.50;83.70;;;;;;6233392;28;88993;-72
2023/05/11 12:10:47;;;;;;;2.60;2.00;;;22.50;83.60;;;;;;6250448;27;89130;-73
2023/05/11 12:13:49;;;;;;;4.13;2.00;;;22.50;83.50;;;;;;6236267;27;90005;-72
2023/05/11 12:17:12;;;;;;;4.53;2.63;;;22.50;83.50;;;;;;6221636;28;89236;-72
2023/05/11 12:20:16;;;;;;;2.20;2.00;;;22.50;83.50;;;;;;6244534;28;88920;-74
2023/05/11 12:23:19;;;;;;;2.67;1.95;;;22.50;83.40;;;;;;6232279;28;89929;-73
2023/05/11 12:26:21;;;;;;;2.95;1.90;;;22.50;83.40;;;;;;6237839;27;89120;-73
2023/05/11 12:29:23;;;;;;;2.78;2.10;;;22.50;83.40;;;;;;6253585;28;89186;-72
2023/05/11 12:32:28;;;;;;;3.30;1.90;;;22.50;83.30;;;;;;6243356;27;89060;-73
2023/05/11 12:35:31;;;;;;;1.95;1.75;;;22.50;83.30;;;;;;6245691;28;88321;-74
2023/05/11 12:38:33;;;;;;;2.13;1.90;;;22.50;83.30;;;;;;6246752;28;88242;-73
2023/05/11 12:41:35;;;;;;;1.65;1.55;;;22.50;83.30;;;;;;6256844;27;89156;-73
2023/05/11 12:44:37;;;;;;;1.63;1.52;;;22.50;83.30;;;;;;6258136;27;90171;-73
2023/05/11 12:47:40;;;;;;;2.15;1.80;;;22.50;83.30;;;;;;6261015;27;89211;-73
2023/05/11 12:50:44;;;;;;;1.90;1.80;;;22.50;83.20;;;;;;6268333;27;89169;-74
2023/05/11 12:53:46;;;;;;;2.45;2.00;;;22.50;83.20;;;;;;6265902;27;89348;-73
2023/05/11 12:56:48;;;;;;;2.47;1.98;;;22.50;83.20;;;;;;6258750;27;89050;-73
2023/05/11 13:00:07;;;;;;;2.03;1.83;;;22.50;83.10;;;;;;6303262;27;89169;-72
2023/05/11 13:03:10;;;;;;;1.90;1.70;;;22.50;83.10;;;;;;6271612;27;88937;-72
2023/05/11 13:06:13;;;;;;;2.70;1.95;;;22.60;83.20;;;;;;6243564;27;87432;-73
2023/05/11 13:09:22;;;;;;;2.22;1.65;;;22.50;83.00;;;;;;6284154;27;89074;-74
2023/05/11 13:12:24;;;;;;;2.20;1.65;;;22.50;83.10;;;;;;6265021;27;89150;-73
2023/05/11 13:15:27;;;;;;;2.42;1.77;;;22.50;83.20;;;;;;6266429;27;90154;-73
2023/05/11 13:18:30;;;;;;;2.00;1.80;;;22.50;83.10;;;;;;6259936;27;89071;-73
2023/05/11 13:21:33;;;;;;;3.22;1.67;;;22.50;83.00;;;;;;6278301;27;89141;-72
2023/05/11 13:24:35;;;;;;;1.88;1.60;;;22.50;83.00;;;;;;6260885;27;89001;-73
2023/05/11 13:27:37;;;;;;;4.05;2.20;;;22.50;83.00;;;;;;6275090;27;89114;-73
2023/05/11 13:30:39;;;;;;;2.05;1.63;;;22.50;83.00;;;;;;6270139;27;89033;-72
2023/05/11 13:33:43;;;;;;;1.88;1.60;;;22.50;83.00;;;;;;6278817;27;89053;-73
2023/05/11 13:36:45;;;;;;;1.90;1.52;;;22.50;82.80;;;;;;6260946;27;88498;-72
2023/05/11 13:39:47;;;;;;;1.75;1.65;;;22.50;82.90;;;;;;6269785;27;89016;-73
2023/05/11 13:42:49;;;;;;;2.88;1.70;;;22.50;82.90;;;;;;6265109;27;89086;-73
2023/05/11 13:45:51;;;;;;;2.05;1.70;;;22.50;82.80;;;;;;6268286;27;89917;-73
2023/05/11 13:48:54;;;;;;;1.40;1.30;;;22.60;82.90;;;;;;6272077;27;89102;-74
2023/05/11 13:51:56;;;;;;;1.58;1.48;;;22.60;83.00;;;;;;6265354;27;89162;-73
2023/05/11 13:54:58;;;;;;;1.60;1.50;;;22.50;82.90;;;;;;6263877;27;89035;-74
2023/05/11 13:58:00;;;;;;;3.53;2.13;;;22.50;82.80;;;;;;6269187;27;88340;-73
2023/05/11 14:01:02;;;;;;;2.03;1.75;;;22.50;82.80;;;;;;6277073;27;89459;-73
2023/05/11 14:04:06;;;;;;;1.83;1.67;;;22.50;82.80;;;;;;6269111;27;89020;-75
2023/05/11 14:07:08;;;;;;;1.92;1.65;;;22.50;82.80;;;;;;6256757;27;88422;-73
2023/05/11 14:10:10;;;;;;;2.25;1.77;;;22.50;82.80;;;;;;6281565;27;88996;-74
2023/05/11 14:13:12;;;;;;;1.60;1.50;;;22.60;82.90;;;;;;6263069;27;89025;-75
2023/05/11 14:16:14;;;;;;;1.90;1.45;;;22.50;82.90;;;;;;6268181;27;90228;-73
2023/05/11 14:19:18;;;;;;;1.88;1.67;;;22.50;82.90;;;;;;6262154;27;89088;-73
2023/05/11 14:22:20;;;;;;;2.63;2.03;;;22.60;83.00;;;;;;6283278;27;89094;-73
2023/05/11 14:25:22;;;;;;;2.40;1.88;;;22.50;83.00;;;;;;6272059;27;88028;-73
2023/05/11 14:28:24;;;;;;;2.35;1.80;;;22.50;83.00;;;;;;6283925;27;89361;-72
2023/05/11 14:31:26;;;;;;;2.78;1.63;;;22.50;83.00;;;;;;6284165;27;89065;-73
2023/05/11 14:34:29;;;;;;;2.58;1.50;;;22.50;82.80;;;;;;6280381;27;89344;-73
2023/05/11 14:37:31;;;;;;;1.70;1.60;;;22.50;82.80;;;;;;6281608;27;87208;-73
2023/05/11 14:40:33;;;;;;;1.80;1.50;;;22.50;82.80;;;;;;6293083;27;89033;-72
2023/05/11 14:43:35;;;;;;;2.30;1.60;;;22.50;82.80;;;;;;6290172;27;89048;-71
2023/05/11 14:46:37;;;;;;;1.70;1.60;;;22.50;82.80;;;;;;6273239;27;88821;-72
2023/05/11 14:49:40;;;;;;;2.00;1.80;;;22.50;82.70;;;;;;6277747;27;89050;-72
2023/05/11 14:52:42;;;;;;;10.35;3.28;;;22.50;82.70;;;;;;6265586;27;87985;-73
2023/05/11 14:55:44;;;;;;;2.95;2.10;;;22.50;83.20;;;;;;6270217;27;89135;-72
2023/05/11 14:58:46;;;;;;;3.05;2.22;;;22.50;83.70;;;;;;6271575;27;89792;-72
2023/05/11 15:01:48;;;;;;;3.65;2.10;;;22.50;83.80;;;;;;6281074;27;89442;-72
2023/05/11 15:04:52;;;;;;;3.42;2.28;;;22.50;84.00;;;;;;6282696;27;87850;-73
2023/05/11 15:07:54;;;;;;;4.80;2.38;;;22.50;83.80;;;;;;6277887;27;88379;-73
2023/05/11 15:10:56;;;;;;;4.78;2.58;;;22.50;83.80;;;;;;6286546;27;88997;-73
2023/05/11 15:13:58;;;;;;;3.38;2.20;;;22.50;83.70;;;;;;6272191;27;89045;-72
2023/05/11 15:17:00;;;;;;;2.80;2.28;;;22.50;83.60;;;;;;6293046;27;88913;-74
2023/05/11 15:20:04;;;;;;;3.03;2.50;;;22.50;83.70;;;;;;6258923;27;89289;-74
2023/05/11 15:23:07;;;;;;;2.83;2.13;;;22.50;83.70;;;;;;6280151;27;89167;-73
2023/05/11 15:26:09;;;;;;;3.20;2.50;;;22.50;83.60;;;;;;6267905;27;90626;-72
2023/05/11 15:29:11;;;;;;;4.32;2.85;;;22.50;83.70;;;;;;6283933;27;90407;-73
2023/05/11 15:32:16;;;;;;;2.60;2.38;;;22.50;83.50;;;;;;6283189;27;88146;-72
2023/05/11 15:35:19;;;;;;;3.92;2.53;;;22.50;83.60;;;;;;6269939;27;88999;-73
2023/05/11 15:38:21;;;;;;;2.60;2.40;;;22.50;83.60;;;;;;6270070;27;87562;-72
2023/05/11 15:41:23;;;;;;;4.40;2.67;;;22.50;83.50;;;;;;6273404;27;89052;-73
2023/05/11 15:44:25;;;;;;;3.75;2.88;;;22.50;83.50;;;;;;6291291;27;88907;-73
2023/05/11 15:47:27;;;;;;;4.00;2.50;;;22.50;83.50;;;;;;6281726;27;90811;-73
2023/05/11 15:50:30;;;;;;;3.55;2.60;;;22.50;83.50;;;;;;6262117;27;89437;-72
2023/05/11 15:53:32;;;;;;;6.20;3.53;;;22.50;83.40;;;;;;6268255;27;89242;-73
2023/05/11 15:56:34;;;;;;;5.50;3.33;;;22.50;83.30;;;;;;6273199;27;89777;-73
2023/05/11 15:59:36;;;;;;;3.97;3.10;;;22.50;83.50;;;;;;6271594;27;90045;-72